メインページ
METAR-TAF:

METAR-TAF

空港 :

エドモントン国際空港

エドモントン, アルバータ州, カナダ

緯度: 53-18N, 経度: 113-35W, 海抜: 715m

現時点の気象観測

当レポートは24分前の17:00(UTC)に作成
南/南東の風 10kt
気温 21°C
湿度 69%
気圧 1023 hPa
視程: 24.1km
高度4000ftの雲はほとんどない
高度25000ftの雲はほとんどない

METAR: CYEG 211700Z 15010KT 15SM FEW040 FEW250 21/15 A3020 RMK CU1CI1 CI TR SLP234 DENSITY ALT 3300FT

時間: 11:24 (17:24 UTC)

予報

当レポートは2時間46分前の14:38(UTC)に作成
予報は21日の 15時(UTC)から 22日の 12時(UTC)まで有効
南/南東の風 8kt
視程: 10km
高度4000ftの雲はほとんどない
高度25000ftの雲はほとんどない
21日の 2100時(UTC)から
南/南東の風 12kt、最大22ktの突風を伴う
視程: 10km
高度5000ftの雲は散在している
22日の 01時(UTC)から 22日の 03時(UTC)まで徐々に
南/南東の風 10kt
晴天

TAF: CYEG 211438Z 2115/2212 16008KT P6SM FEW040 FEW250 FM212100 16012G22KT P6SM SCT050 BECMG 2201/2203 16010KT SKC RMK NXT FCST BY 211800Z

4,000以上の空港の気象観測と天気予報(METAR報とTAF報)

利用可能な観測所は地図上に黄色い丸と赤い丸で示す。

丸の上にカーソルを重ねると観測所名を参照できる。

次にクリックすると気象観測と天気予報を参照できる。

マップの切り替え:黒色「×」印の緑ボタンをクリックして拡大、「-」印の緑ボタンをクリックして縮小、緑色の三角印をクリックして隣りの地図に切り替え


METAR-TAF: